Terminal Aerodrome Forecast
Issued by NWS Paducah, KY

Home | Current Version | Previous Version | Text Only | Print | Product List | Glossary On
Versions: 1 2 3 4 5 6 7 8 9 10 11 12 13 14 15 16
000
FTUS43 KPAH 310800 AAA
TAFPAH
TAF AMD
KPAH 310847Z 3109/0106 00000KT P6SM SCT050 BKN200
      TEMPO 3109/3113 3SM BR
     FM311500 22004KT P6SM BKN050=

USA.gov is the U.S. government's official web portal to all federal, state and local government web resources and services.